x

West Bermuda - 240 Nm West Of Bermuda (41048) Wave Buoy

4:50pm - Mon 25th Jul 2016 All times are UTC.

  • Sig Wave height 2.0ft
  • Swell Direction
  • Peak Period 8s
  • Average Period 5s
  • Wind
    9mph, 11mph gusts
  • Sea Temp 85°f
  • Air Temp 83°f
  • Sea Pressure 1020.2mb

More Historic Weather Station data

Upgrade to MSW Pro to gain access to the past 30 days of data for over 8000 Wavebouys and Weather Stations around the globe.

Join Pro

Comparision Forecast

View Surf forecast
   
Mon 07/25 4:50pm 2ft 8s 5s 9 11 mph 1020.2mb 85f 83f
3:50pm 2ft 8s 6s 9 11 mph 1020.4mb 84f 83f
2:50pm 2ft 8s 6s 9 11 mph 1020.4mb 84f 83f
1:50pm 2.5ft 8s 6s 7 9 mph 1020.2mb 84f 83f
12:50pm 2.5ft 8s 6s 7
mph
1020.1mb 84f 83f
11:50am 2ft 7s 5s 9 11 mph 1020mb 84f 82f
10:50am 2.5ft 8s 6s 7 9 mph 1019.7mb 84f 83f
9:50am 2.5ft 8s 6s 4 7 mph 1019.5mb 84f 82f
8:50am 2.5ft 8s 6s 7 9 mph 1019.2mb 84f 82f
7:50am 2.5ft 8s 6s 7 9 mph 1019.2mb 84f 83f
6:50am 2.5ft 9s 6s 7 9 mph 1019.3mb 84f 83f
5:50am 2.5ft 8s 6s 9 11 mph 1019.2mb 84f 83f
4:50am 2.5ft 8s 6s 9 11 mph 1019.2mb 84f 83f
3:50am 2.5ft 8s 6s 7 9 mph 1019.5mb 85f 83f
2:50am 2.5ft 9s 6s 7 9 mph 1019.6mb 85f 83f
1:50am 2.5ft 9s 6s 7
mph
1019.7mb 85f 83f
12:50am 2.5ft 8s 6s 7 9 mph 1019.1mb 85f 83f
Sun 07/24 11:50pm 2.5ft 9s 6s 7 11 mph 1018.8mb 85f 83f
10:50pm 2.5ft 9s 6s 2 4 mph 1018.7mb 85f 84f
9:50pm 2.5ft 8s 6s 2 4 mph 1018.4mb 86f 84f
8:50pm 2ft 8s 6s 2 4 mph 1018.3mb 86f 83f
7:50pm 2.5ft 9s 6s 4 7 mph 1018.4mb 86f 83f
6:50pm 2.5ft 8s 6s 7
mph
1018.5mb 86f 83f
5:50pm 2.5ft 8s 6s 4
mph
1019.1mb 86f 83f
4:50pm 2.5ft 8s 6s 4 7 mph 1018.7mb 86f 82f
3:50pm 2.5ft 9s 6s  -  2 mph 1019.6mb 87f 83f
2:50pm 2.5ft 8s 6s 2 4 mph 1019.1mb 85f 82f
1:50pm 2.5ft 8s 6s  -  2 mph 1018.5mb 84f 83f
12:50pm 2.5ft 9s 6s 2
mph
1018.5mb 84f 82f
11:50am 2.5ft 8s 6s  -  2 mph 1018.4mb 84f 83f
10:50am 2.5ft 8s 6s  -  2 mph 1018mb 83f 82f
9:50am 2.5ft 8s 6s 2
mph
1018mb 83f 81f
8:50am 3ft 9s 6s  -  2 mph 1017.4mb 83f 81f
7:50am 3ft 8s 6s  -  2 mph 1017.2mb 83f 82f
6:50am 2.5ft 8s 6s 2 4 mph 1017.4mb 84f 82f
5:50am 2.5ft 8s 6s 4
mph
1017.3mb 84f 82f
4:50am 2.5ft 8s 6s 4 7 mph 1017.5mb 84f 82f
3:50am 2.5ft 7s 6s 7 9 mph 1017.8mb 84f 82f
2:50am 2.5ft 8s 6s 9 11 mph 1017.7mb 84f 82f
1:50am 2.5ft 8s 7s 7 9 mph 1017.5mb 84f 81f
12:50am 2.5ft 8s 7s 7 9 mph 1016.9mb 84f 82f
Sat 07/23 11:50pm 2.5ft 9s 7s 7 9 mph 1016.8mb 84f 82f
10:50pm 2.5ft 9s 6s 7 9 mph 1016.7mb 85f 82f
9:50pm 2.5ft 8s 7s 4 7 mph 1016.7mb 84f 82f
8:50pm 2.5ft 9s 7s 2 4 mph 1017mb 85f 82f
7:50pm 2.5ft 8s 6s 2 4 mph 1017.3mb 85f 82f
6:50pm 3ft 8s 6s  -  2 mph 1017.7mb 84f 82f
5:50pm 2.5ft 8s 6s 2 4 mph 1017.7mb 85f 82f
4:50pm 2.5ft 8s 6s 4
mph
1017.8mb 84f 82f
3:50pm 3ft 8s 6s 4 7 mph 1018.1mb 84f 82f
2:50pm 2.5ft 8s 6s 7 9 mph 1018.1mb 83f 81f
1:50pm 3ft 8s 6s 7
mph
1017.8mb 83f 81f
12:50pm 3ft 8s 6s 2 4 mph 1017.7mb 83f 81f
11:50am 3ft 9s 6s 4
mph
1017.9mb 83f 81f
10:50am 3ft 8s 6s 2 4 mph 1017.8mb 83f 81f
9:50am 3ft 8s 6s 2 4 mph 1017.1mb 83f 80f
8:50am 3.5ft 8s 6s  -  2 mph 1017.1mb 83f 80f
7:50am 3ft 9s 6s 2 4 mph 1016.9mb 83f 80f
6:50am 3ft 8s 6s 2 4 mph 1017.1mb 83f 80f
5:50am 3ft 8s 6s 4
mph
1017.2mb 83f 80f
4:50am 3.5ft 9s 6s 4 7 mph 1017.4mb 83f 80f
3:50am 3.5ft 8s 6s 4 7 mph 1017.7mb 83f 80f
2:50am 3.5ft 9s 6s 4 7 mph 1018.1mb 83f 80f
1:50am 3.5ft 8s 6s 4 7 mph 1018mb 83f 81f
12:50am 3ft 9s 6s 4 7 mph 1017.8mb 84f 81f
Fri 07/22 11:50pm 3ft 8s 6s 4 7 mph 1017.7mb 84f 81f
10:50pm 3.5ft 9s 6s 2 4 mph 1017.6mb 84f 81f
9:50pm 3.5ft 8s 6s 4 9 mph 1017.4mb 85f 81f
8:50pm 3.5ft 8s 6s 2
mph
1018.1mb 85f 82f
7:50pm 3.5ft 8s 6s 2 4 mph 1018.5mb 85f 82f
6:50pm 3.5ft 9s 6s 2 4 mph 1019.1mb 84f 81f
5:50pm 3.5ft 9s 6s 7 9 mph 1019.3mb 83f 81f
4:50pm 3.5ft 9s 6s 9 13 mph 1019.3mb 83f 80f
3:50pm 3.5ft 8s 6s 7
mph
1019.7mb 83f 81f
2:50pm 3.5ft 8s 6s 9 11 mph 1019.9mb 83f 81f
1:50pm 3.5ft 8s 6s 9 11 mph 1019.4mb 83f 81f
12:50pm 4ft 8s 6s 11 13 mph 1019.3mb 83f 80f
11:50am 4ft 8s 6s 11 13 mph 1019.2mb 83f 81f
10:50am 4ft 8s 6s 9 11 mph 1019mb 83f 80f
9:50am 3.5ft 8s 6s 9 11 mph 1019.2mb 83f 80f
8:50am 4ft 8s 6s 11 13 mph 1018.8mb 83f 80f
7:50am 3.5ft 8s 6s 4 7 mph 1019mb 83f 81f
6:50am 3.5ft 9s 6s 4 9 mph 1019.4mb 83f 81f
5:50am 3.5ft 9s 6s 2 4 mph 1019.9mb 83f 81f
4:50am 3.5ft 9s 6s 2 7 mph 1020.3mb 83f 81f
3:50am 4ft 8s 7s 4 7 mph 1020.7mb 83f 81f
2:50am 3.5ft 9s 7s 2
mph
1020.7mb 83f 81f
1:50am 3.5ft 8s 7s 2 4 mph 1020.9mb 83f 82f
12:50am 3.5ft 9s 7s 4 7 mph 1020.2mb 83f 82f
Thu 07/21 11:50pm 3.5ft 8s 7s 2 7 mph 1019.8mb 84f 82f
10:50pm 3.5ft 8s 7s 2
mph
1019.6mb 85f 82f
9:50pm 3.5ft 9s 7s 2 4 mph 1019.1mb 86f 82f
8:50pm 3.5ft 9s 7s 2 4 mph 1019.2mb 86f 82f
7:50pm 3.5ft 8s 7s 2
mph
1019.8mb 86f 83f
6:50pm 3.5ft 9s 7s  -  2 mph 1020.3mb 86f 82f